You are listening to:
KJFK Tower - New York, New York, United States

KJFK 011951Z 24020G29KT 10SM BKN035 BKN050 08/01 A2961 RMK AO2 PK WND 24029/1922 SLP026 T00780011 $

If stream doesn't start automatically press the play button
If stream stops then reload player then press play